sensor_id;sensor_type;location;lat;lon;timestamp;P1;durP1;ratioP1;P2;durP2;ratioP2
31464;SDS011;18089;47.428;15.006;2022-12-29T00:01:29;68.93;;;39.40;;
31464;SDS011;18089;47.428;15.006;2022-12-29T00:04:01;65.93;;;42.00;;
31464;SDS011;18089;47.428;15.006;2022-12-29T00:06:33;68.90;;;38.83;;
31464;SDS011;18089;47.428;15.006;2022-12-29T00:09:05;71.20;;;41.80;;
31464;SDS011;18089;47.428;15.006;2022-12-29T00:11:38;62.90;;;38.93;;
31464;SDS011;18089;47.428;15.006;2022-12-29T00:14:11;62.50;;;37.27;;
31464;SDS011;18089;47.428;15.006;2022-12-29T00:17:00;62.50;;;38.30;;
31464;SDS011;18089;47.428;15.006;2022-12-29T00:19:33;61.73;;;36.63;;
31464;SDS011;18089;47.428;15.006;2022-12-29T00:22:22;58.67;;;36.50;;
31464;SDS011;18089;47.428;15.006;2022-12-29T00:25:12;57.73;;;36.27;;
31464;SDS011;18089;47.428;15.006;2022-12-29T00:28:02;63.73;;;37.67;;
31464;SDS011;18089;47.428;15.006;2022-12-29T00:30:52;55.30;;;37.13;;
31464;SDS011;18089;47.428;15.006;2022-12-29T00:33:41;53.93;;;36.97;;
31464;SDS011;18089;47.428;15.006;2022-12-29T00:36:31;55.33;;;36.03;;
31464;SDS011;18089;47.428;15.006;2022-12-29T00:39:07;53.03;;;36.27;;
31464;SDS011;18089;47.428;15.006;2022-12-29T00:42:02;53.90;;;34.70;;
31464;SDS011;18089;47.428;15.006;2022-12-29T00:45:04;60.00;;;35.07;;
31464;SDS011;18089;47.428;15.006;2022-12-29T00:47:38;52.30;;;34.23;;
31464;SDS011;18089;47.428;15.006;2022-12-29T00:50:10;52.17;;;34.83;;
31464;SDS011;18089;47.428;15.006;2022-12-29T00:52:41;46.53;;;33.57;;
31464;SDS011;18089;47.428;15.006;2022-12-29T00:55:13;46.43;;;32.03;;
31464;SDS011;18089;47.428;15.006;2022-12-29T00:57:45;43.97;;;31.73;;
31464;SDS011;18089;47.428;15.006;2022-12-29T01:00:17;34.00;;;27.07;;
31464;SDS011;18089;47.428;15.006;2022-12-29T01:02:50;41.53;;;31.27;;
31464;SDS011;18089;47.428;15.006;2022-12-29T01:05:22;41.43;;;31.43;;
31464;SDS011;18089;47.428;15.006;2022-12-29T01:07:54;40.10;;;30.03;;
31464;SDS011;18089;47.428;15.006;2022-12-29T01:10:26;42.37;;;30.93;;
31464;SDS011;18089;47.428;15.006;2022-12-29T01:12:57;40.47;;;29.47;;
31464;SDS011;18089;47.428;15.006;2022-12-29T01:15:29;42.53;;;30.60;;
31464;SDS011;18089;47.428;15.006;2022-12-29T01:18:03;41.10;;;29.53;;
31464;SDS011;18089;47.428;15.006;2022-12-29T01:20:35;37.33;;;28.70;;
31464;SDS011;18089;47.428;15.006;2022-12-29T01:23:07;34.20;;;28.30;;
31464;SDS011;18089;47.428;15.006;2022-12-29T01:25:39;39.63;;;29.07;;
31464;SDS011;18089;47.428;15.006;2022-12-29T01:28:11;39.90;;;29.10;;
31464;SDS011;18089;47.428;15.006;2022-12-29T01:30:44;35.40;;;28.43;;
31464;SDS011;18089;47.428;15.006;2022-12-29T01:33:17;37.50;;;28.10;;
31464;SDS011;18089;47.428;15.006;2022-12-29T01:35:49;35.87;;;28.03;;
31464;SDS011;18089;47.428;15.006;2022-12-29T01:38:21;39.87;;;31.03;;
31464;SDS011;18089;47.428;15.006;2022-12-29T01:40:53;39.40;;;30.40;;
31464;SDS011;18089;47.428;15.006;2022-12-29T01:43:37;35.70;;;27.67;;
31464;SDS011;18089;47.428;15.006;2022-12-29T01:49:05;32.90;;;26.97;;
31464;SDS011;18089;47.428;15.006;2022-12-29T01:51:42;37.13;;;27.97;;
31464;SDS011;18089;47.428;15.006;2022-12-29T01:54:17;36.83;;;29.47;;
31464;SDS011;18089;47.428;15.006;2022-12-29T01:56:50;39.00;;;28.20;;
31464;SDS011;18089;47.428;15.006;2022-12-29T01:59:24;39.33;;;29.50;;
31464;SDS011;18089;47.428;15.006;2022-12-29T02:01:58;35.83;;;28.83;;
31464;SDS011;18089;47.428;15.006;2022-12-29T02:04:31;41.40;;;28.27;;
31464;SDS011;18089;47.428;15.006;2022-12-29T02:07:05;37.60;;;26.70;;
31464;SDS011;18089;47.428;15.006;2022-12-29T02:09:39;37.43;;;27.73;;
31464;SDS011;18089;47.428;15.006;2022-12-29T02:12:11;37.60;;;29.70;;
31464;SDS011;18089;47.428;15.006;2022-12-29T02:14:44;35.30;;;28.83;;
31464;SDS011;18089;47.428;15.006;2022-12-29T02:17:17;33.30;;;27.93;;
31464;SDS011;18089;47.428;15.006;2022-12-29T02:23:05;38.37;;;27.80;;
31464;SDS011;18089;47.428;15.006;2022-12-29T02:26:03;33.30;;;26.57;;
31464;SDS011;18089;47.428;15.006;2022-12-29T02:28:59;30.90;;;25.83;;
31464;SDS011;18089;47.428;15.006;2022-12-29T02:31:48;34.70;;;26.47;;
31464;SDS011;18089;47.428;15.006;2022-12-29T02:34:25;30.60;;;25.87;;
31464;SDS011;18089;47.428;15.006;2022-12-29T02:37:02;36.33;;;26.33;;
31464;SDS011;18089;47.428;15.006;2022-12-29T02:39:39;34.00;;;27.70;;
31464;SDS011;18089;47.428;15.006;2022-12-29T02:42:14;34.70;;;27.23;;
31464;SDS011;18089;47.428;15.006;2022-12-29T02:44:52;35.40;;;27.90;;
31464;SDS011;18089;47.428;15.006;2022-12-29T02:47:30;32.87;;;27.50;;
31464;SDS011;18089;47.428;15.006;2022-12-29T02:50:08;35.73;;;27.73;;
31464;SDS011;18089;47.428;15.006;2022-12-29T02:52:46;34.07;;;26.07;;
31464;SDS011;18089;47.428;15.006;2022-12-29T02:55:21;30.87;;;25.10;;
31464;SDS011;18089;47.428;15.006;2022-12-29T02:58:06;31.73;;;26.93;;
31464;SDS011;18089;47.428;15.006;2022-12-29T03:00:48;34.70;;;27.33;;
31464;SDS011;18089;47.428;15.006;2022-12-29T03:03:37;32.00;;;25.83;;
31464;SDS011;18089;47.428;15.006;2022-12-29T03:06:21;37.03;;;26.27;;
31464;SDS011;18089;47.428;15.006;2022-12-29T03:09:03;31.50;;;26.27;;
31464;SDS011;18089;47.428;15.006;2022-12-29T03:11:45;33.03;;;25.23;;
31464;SDS011;18089;47.428;15.006;2022-12-29T03:14:39;30.33;;;25.37;;
31464;SDS011;18089;47.428;15.006;2022-12-29T03:17:36;30.83;;;23.97;;
31464;SDS011;18089;47.428;15.006;2022-12-29T03:20:18;30.13;;;25.83;;
31464;SDS011;18089;47.428;15.006;2022-12-29T03:22:53;28.70;;;25.57;;
31464;SDS011;18089;47.428;15.006;2022-12-29T03:25:31;28.80;;;24.43;;
31464;SDS011;18089;47.428;15.006;2022-12-29T03:28:05;29.10;;;24.97;;
31464;SDS011;18089;47.428;15.006;2022-12-29T03:30:39;25.97;;;23.23;;
31464;SDS011;18089;47.428;15.006;2022-12-29T03:33:13;28.13;;;23.63;;
31464;SDS011;18089;47.428;15.006;2022-12-29T03:35:48;27.20;;;23.83;;
31464;SDS011;18089;47.428;15.006;2022-12-29T03:38:23;27.40;;;24.00;;
31464;SDS011;18089;47.428;15.006;2022-12-29T03:40:57;26.93;;;23.83;;
31464;SDS011;18089;47.428;15.006;2022-12-29T03:43:30;27.43;;;24.67;;
31464;SDS011;18089;47.428;15.006;2022-12-29T03:46:02;27.23;;;23.90;;
31464;SDS011;18089;47.428;15.006;2022-12-29T03:48:34;27.10;;;23.20;;
31464;SDS011;18089;47.428;15.006;2022-12-29T03:51:08;28.53;;;23.87;;
31464;SDS011;18089;47.428;15.006;2022-12-29T03:53:40;28.20;;;24.17;;
31464;SDS011;18089;47.428;15.006;2022-12-29T03:56:12;29.77;;;24.37;;
31464;SDS011;18089;47.428;15.006;2022-12-29T03:58:44;30.03;;;24.57;;
31464;SDS011;18089;47.428;15.006;2022-12-29T04:01:16;29.87;;;25.23;;
31464;SDS011;18089;47.428;15.006;2022-12-29T04:03:48;26.30;;;23.43;;
31464;SDS011;18089;47.428;15.006;2022-12-29T04:06:21;31.23;;;24.77;;
31464;SDS011;18089;47.428;15.006;2022-12-29T04:08:53;32.60;;;26.00;;
31464;SDS011;18089;47.428;15.006;2022-12-29T04:11:25;35.67;;;25.77;;
31464;SDS011;18089;47.428;15.006;2022-12-29T04:13:57;33.67;;;27.13;;
31464;SDS011;18089;47.428;15.006;2022-12-29T04:16:29;32.67;;;26.70;;
31464;SDS011;18089;47.428;15.006;2022-12-29T04:19:02;37.70;;;27.03;;
31464;SDS011;18089;47.428;15.006;2022-12-29T04:21:35;39.80;;;28.40;;
31464;SDS011;18089;47.428;15.006;2022-12-29T04:24:07;29.10;;;24.17;;
31464;SDS011;18089;47.428;15.006;2022-12-29T04:26:39;30.63;;;25.97;;
31464;SDS011;18089;47.428;15.006;2022-12-29T04:29:11;31.63;;;25.87;;
31464;SDS011;18089;47.428;15.006;2022-12-29T04:31:43;29.07;;;24.83;;
31464;SDS011;18089;47.428;15.006;2022-12-29T04:34:15;25.27;;;22.57;;
31464;SDS011;18089;47.428;15.006;2022-12-29T04:36:49;26.37;;;22.90;;
31464;SDS011;18089;47.428;15.006;2022-12-29T04:39:21;26.00;;;23.27;;
31464;SDS011;18089;47.428;15.006;2022-12-29T04:41:53;29.10;;;23.57;;
31464;SDS011;18089;47.428;15.006;2022-12-29T04:44:25;28.33;;;23.47;;
31464;SDS011;18089;47.428;15.006;2022-12-29T04:46:57;28.63;;;24.37;;
31464;SDS011;18089;47.428;15.006;2022-12-29T04:49:29;28.00;;;24.53;;
31464;SDS011;18089;47.428;15.006;2022-12-29T04:52:03;28.37;;;24.37;;
31464;SDS011;18089;47.428;15.006;2022-12-29T04:54:35;26.13;;;23.53;;
31464;SDS011;18089;47.428;15.006;2022-12-29T04:57:07;27.63;;;23.17;;
31464;SDS011;18089;47.428;15.006;2022-12-29T04:59:39;26.60;;;22.10;;
31464;SDS011;18089;47.428;15.006;2022-12-29T05:02:11;27.87;;;24.37;;
31464;SDS011;18089;47.428;15.006;2022-12-29T05:04:43;31.27;;;24.27;;
31464;SDS011;18089;47.428;15.006;2022-12-29T05:07:17;24.83;;;22.40;;
31464;SDS011;18089;47.428;15.006;2022-12-29T05:09:49;25.77;;;23.17;;
31464;SDS011;18089;47.428;15.006;2022-12-29T05:12:21;26.53;;;23.60;;
31464;SDS011;18089;47.428;15.006;2022-12-29T05:14:53;26.43;;;23.13;;
31464;SDS011;18089;47.428;15.006;2022-12-29T05:17:25;26.00;;;22.80;;
31464;SDS011;18089;47.428;15.006;2022-12-29T05:19:58;25.03;;;22.33;;
31464;SDS011;18089;47.428;15.006;2022-12-29T05:22:31;26.40;;;23.60;;
31464;SDS011;18089;47.428;15.006;2022-12-29T05:25:03;26.27;;;23.47;;
31464;SDS011;18089;47.428;15.006;2022-12-29T05:27:36;26.87;;;24.13;;
31464;SDS011;18089;47.428;15.006;2022-12-29T05:30:08;25.60;;;22.90;;
31464;SDS011;18089;47.428;15.006;2022-12-29T05:32:41;27.57;;;24.63;;
31464;SDS011;18089;47.428;15.006;2022-12-29T05:35:13;25.73;;;23.17;;
31464;SDS011;18089;47.428;15.006;2022-12-29T05:37:47;27.00;;;24.30;;
31464;SDS011;18089;47.428;15.006;2022-12-29T05:40:19;27.60;;;23.13;;
31464;SDS011;18089;47.428;15.006;2022-12-29T05:42:52;26.40;;;23.60;;
31464;SDS011;18089;47.428;15.006;2022-12-29T05:45:24;27.03;;;24.33;;
31464;SDS011;18089;47.428;15.006;2022-12-29T05:47:56;29.10;;;25.00;;
31464;SDS011;18089;47.428;15.006;2022-12-29T05:50:28;27.47;;;23.60;;
31464;SDS011;18089;47.428;15.006;2022-12-29T05:53:01;28.77;;;24.33;;
31464;SDS011;18089;47.428;15.006;2022-12-29T05:55:33;29.50;;;23.53;;
31464;SDS011;18089;47.428;15.006;2022-12-29T05:58:05;28.73;;;24.10;;
31464;SDS011;18089;47.428;15.006;2022-12-29T06:00:37;26.90;;;22.67;;
31464;SDS011;18089;47.428;15.006;2022-12-29T06:03:09;26.93;;;24.07;;
31464;SDS011;18089;47.428;15.006;2022-12-29T06:05:41;25.53;;;22.90;;
31464;SDS011;18089;47.428;15.006;2022-12-29T06:08:16;26.10;;;23.27;;
31464;SDS011;18089;47.428;15.006;2022-12-29T06:10:49;29.70;;;24.67;;
31464;SDS011;18089;47.428;15.006;2022-12-29T06:13:21;27.17;;;24.23;;
31464;SDS011;18089;47.428;15.006;2022-12-29T06:15:53;28.03;;;24.07;;
31464;SDS011;18089;47.428;15.006;2022-12-29T06:18:25;26.63;;;23.57;;
31464;SDS011;18089;47.428;15.006;2022-12-29T06:20:59;27.27;;;24.43;;
31464;SDS011;18089;47.428;15.006;2022-12-29T06:23:32;26.57;;;22.87;;
31464;SDS011;18089;47.428;15.006;2022-12-29T06:26:04;26.00;;;23.27;;
31464;SDS011;18089;47.428;15.006;2022-12-29T06:28:36;27.33;;;24.40;;
31464;SDS011;18089;47.428;15.006;2022-12-29T06:31:08;24.40;;;22.07;;
31464;SDS011;18089;47.428;15.006;2022-12-29T06:33:41;25.70;;;22.93;;
31464;SDS011;18089;47.428;15.006;2022-12-29T06:36:13;26.37;;;23.63;;
31464;SDS011;18089;47.428;15.006;2022-12-29T06:38:46;26.57;;;23.77;;
31464;SDS011;18089;47.428;15.006;2022-12-29T06:41:18;29.37;;;23.07;;
31464;SDS011;18089;47.428;15.006;2022-12-29T06:43:50;27.07;;;24.23;;
31464;SDS011;18089;47.428;15.006;2022-12-29T06:46:22;27.83;;;24.90;;
31464;SDS011;18089;47.428;15.006;2022-12-29T06:48:54;33.17;;;25.80;;
31464;SDS011;18089;47.428;15.006;2022-12-29T06:51:26;29.67;;;26.33;;
31464;SDS011;18089;47.428;15.006;2022-12-29T06:54:00;33.10;;;24.93;;
31464;SDS011;18089;47.428;15.006;2022-12-29T06:56:32;33.93;;;24.63;;
31464;SDS011;18089;47.428;15.006;2022-12-29T06:59:04;41.60;;;27.97;;
31464;SDS011;18089;47.428;15.006;2022-12-29T07:01:36;44.27;;;28.03;;
31464;SDS011;18089;47.428;15.006;2022-12-29T07:04:08;58.83;;;34.13;;
31464;SDS011;18089;47.428;15.006;2022-12-29T07:06:40;51.70;;;32.43;;
31464;SDS011;18089;47.428;15.006;2022-12-29T07:09:13;49.60;;;32.60;;
31464;SDS011;18089;47.428;15.006;2022-12-29T07:11:45;52.70;;;32.23;;
31464;SDS011;18089;47.428;15.006;2022-12-29T07:14:17;54.13;;;32.30;;
31464;SDS011;18089;47.428;15.006;2022-12-29T07:16:49;52.63;;;31.13;;
31464;SDS011;18089;47.428;15.006;2022-12-29T07:19:21;60.80;;;33.83;;
31464;SDS011;18089;47.428;15.006;2022-12-29T07:21:54;71.70;;;34.43;;
31464;SDS011;18089;47.428;15.006;2022-12-29T07:24:27;54.40;;;34.00;;
31464;SDS011;18089;47.428;15.006;2022-12-29T07:26:59;55.93;;;33.53;;
31464;SDS011;18089;47.428;15.006;2022-12-29T07:29:31;48.90;;;32.33;;
31464;SDS011;18089;47.428;15.006;2022-12-29T07:32:04;54.13;;;31.20;;
31464;SDS011;18089;47.428;15.006;2022-12-29T07:34:36;59.07;;;35.27;;
31464;SDS011;18089;47.428;15.006;2022-12-29T07:37:09;63.87;;;37.70;;
31464;SDS011;18089;47.428;15.006;2022-12-29T07:39:43;55.97;;;35.67;;
31464;SDS011;18089;47.428;15.006;2022-12-29T07:42:15;61.70;;;37.00;;
31464;SDS011;18089;47.428;15.006;2022-12-29T07:44:47;54.43;;;34.50;;
31464;SDS011;18089;47.428;15.006;2022-12-29T07:47:19;56.87;;;35.63;;
31464;SDS011;18089;47.428;15.006;2022-12-29T07:49:51;61.03;;;34.93;;
31464;SDS011;18089;47.428;15.006;2022-12-29T07:52:23;55.80;;;34.90;;
31464;SDS011;18089;47.428;15.006;2022-12-29T07:54:56;56.17;;;37.37;;
31464;SDS011;18089;47.428;15.006;2022-12-29T07:57:28;68.83;;;42.83;;
31464;SDS011;18089;47.428;15.006;2022-12-29T08:00:00;77.10;;;44.47;;
31464;SDS011;18089;47.428;15.006;2022-12-29T08:02:34;96.80;;;51.17;;
31464;SDS011;18089;47.428;15.006;2022-12-29T08:05:06;149.87;;;64.30;;
31464;SDS011;18089;47.428;15.006;2022-12-29T08:07:38;161.20;;;71.37;;
31464;SDS011;18089;47.428;15.006;2022-12-29T08:10:12;154.67;;;67.93;;
31464;SDS011;18089;47.428;15.006;2022-12-29T08:12:44;151.13;;;66.93;;
31464;SDS011;18089;47.428;15.006;2022-12-29T08:15:16;147.53;;;66.87;;
31464;SDS011;18089;47.428;15.006;2022-12-29T08:17:48;102.13;;;54.07;;
31464;SDS011;18089;47.428;15.006;2022-12-29T08:20:20;101.23;;;51.17;;
31464;SDS011;18089;47.428;15.006;2022-12-29T08:22:52;104.80;;;51.20;;
31464;SDS011;18089;47.428;15.006;2022-12-29T08:25:26;92.37;;;50.53;;
31464;SDS011;18089;47.428;15.006;2022-12-29T08:27:58;98.53;;;51.37;;
31464;SDS011;18089;47.428;15.006;2022-12-29T08:30:30;98.73;;;50.50;;
31464;SDS011;18089;47.428;15.006;2022-12-29T08:33:02;82.57;;;44.87;;
31464;SDS011;18089;47.428;15.006;2022-12-29T08:35:34;78.13;;;43.53;;
31464;SDS011;18089;47.428;15.006;2022-12-29T08:38:06;60.73;;;38.37;;
31464;SDS011;18089;47.428;15.006;2022-12-29T08:40:39;63.23;;;38.37;;
31464;SDS011;18089;47.428;15.006;2022-12-29T08:43:11;54.70;;;33.03;;
31464;SDS011;18089;47.428;15.006;2022-12-29T08:45:43;52.80;;;32.63;;
31464;SDS011;18089;47.428;15.006;2022-12-29T08:48:15;48.63;;;31.97;;
31464;SDS011;18089;47.428;15.006;2022-12-29T08:50:49;42.80;;;29.10;;
31464;SDS011;18089;47.428;15.006;2022-12-29T08:53:21;39.53;;;26.47;;
31464;SDS011;18089;47.428;15.006;2022-12-29T08:55:59;30.70;;;24.97;;
31464;SDS011;18089;47.428;15.006;2022-12-29T08:58:31;34.23;;;26.00;;
31464;SDS011;18089;47.428;15.006;2022-12-29T09:01:04;36.10;;;26.20;;
31464;SDS011;18089;47.428;15.006;2022-12-29T09:03:36;32.70;;;24.33;;
31464;SDS011;18089;47.428;15.006;2022-12-29T09:06:08;33.50;;;24.40;;
31464;SDS011;18089;47.428;15.006;2022-12-29T09:08:40;30.13;;;23.57;;
31464;SDS011;18089;47.428;15.006;2022-12-29T09:11:14;25.97;;;21.20;;
31464;SDS011;18089;47.428;15.006;2022-12-29T09:13:47;28.70;;;22.13;;
31464;SDS011;18089;47.428;15.006;2022-12-29T09:16:20;23.07;;;20.53;;
31464;SDS011;18089;47.428;15.006;2022-12-29T09:18:54;25.87;;;20.93;;
31464;SDS011;18089;47.428;15.006;2022-12-29T09:21:26;24.70;;;21.47;;
31464;SDS011;18089;47.428;15.006;2022-12-29T09:23:58;26.67;;;21.23;;
31464;SDS011;18089;47.428;15.006;2022-12-29T09:26:31;36.20;;;24.83;;
31464;SDS011;18089;47.428;15.006;2022-12-29T09:29:03;39.73;;;28.47;;
31464;SDS011;18089;47.428;15.006;2022-12-29T09:31:35;37.33;;;25.83;;
31464;SDS011;18089;47.428;15.006;2022-12-29T09:34:07;27.67;;;22.80;;
31464;SDS011;18089;47.428;15.006;2022-12-29T09:36:39;29.03;;;22.17;;
31464;SDS011;18089;47.428;15.006;2022-12-29T09:39:12;25.83;;;21.33;;
31464;SDS011;18089;47.428;15.006;2022-12-29T09:41:48;27.05;;;21.90;;
31464;SDS011;18089;47.428;15.006;2022-12-29T09:44:24;27.17;;;21.83;;
31464;SDS011;18089;47.428;15.006;2022-12-29T09:46:59;29.08;;;21.27;;
31464;SDS011;18089;47.428;15.006;2022-12-29T09:49:33;25.88;;;20.63;;
31464;SDS011;18089;47.428;15.006;2022-12-29T09:52:12;23.63;;;20.23;;
31464;SDS011;18089;47.428;15.006;2022-12-29T09:54:48;17.70;;;15.80;;
31464;SDS011;18089;47.428;15.006;2022-12-29T09:57:26;18.00;;;16.10;;
31464;SDS011;18089;47.428;15.006;2022-12-29T10:00:01;17.17;;;15.47;;
31464;SDS011;18089;47.428;15.006;2022-12-29T10:02:37;17.73;;;15.85;;
31464;SDS011;18089;47.428;15.006;2022-12-29T10:05:16;15.55;;;13.70;;
31464;SDS011;18089;47.428;15.006;2022-12-29T10:07:55;14.90;;;13.40;;
31464;SDS011;18089;47.428;15.006;2022-12-29T10:10:35;17.67;;;14.73;;
31464;SDS011;18089;47.428;15.006;2022-12-29T10:13:16;15.07;;;13.57;;
31464;SDS011;18089;47.428;15.006;2022-12-29T10:15:57;16.25;;;14.55;;
31464;SDS011;18089;47.428;15.006;2022-12-29T10:19:00;17.67;;;15.70;;
31464;SDS011;18089;47.428;15.006;2022-12-29T10:21:47;18.40;;;15.38;;
31464;SDS011;18089;47.428;15.006;2022-12-29T10:24:24;17.63;;;15.77;;
31464;SDS011;18089;47.428;15.006;2022-12-29T10:26:58;20.45;;;16.75;;
31464;SDS011;18089;47.428;15.006;2022-12-29T10:29:34;18.20;;;16.27;;
31464;SDS011;18089;47.428;15.006;2022-12-29T10:32:09;26.02;;;19.00;;
31464;SDS011;18089;47.428;15.006;2022-12-29T10:34:49;26.50;;;20.63;;
31464;SDS011;18089;47.428;15.006;2022-12-29T10:37:27;21.33;;;18.08;;
31464;SDS011;18089;47.428;15.006;2022-12-29T10:40:11;20.70;;;18.50;;
31464;SDS011;18089;47.428;15.006;2022-12-29T10:42:49;24.08;;;18.80;;
31464;SDS011;18089;47.428;15.006;2022-12-29T10:45:27;21.23;;;18.45;;
31464;SDS011;18089;47.428;15.006;2022-12-29T10:48:01;21.77;;;18.35;;
31464;SDS011;18089;47.428;15.006;2022-12-29T10:50:35;22.15;;;18.05;;
31464;SDS011;18089;47.428;15.006;2022-12-29T10:53:15;19.33;;;17.13;;
31464;SDS011;18089;47.428;15.006;2022-12-29T10:55:50;22.15;;;18.48;;
31464;SDS011;18089;47.428;15.006;2022-12-29T10:58:22;23.55;;;17.38;;
31464;SDS011;18089;47.428;15.006;2022-12-29T11:00:57;22.07;;;17.80;;
31464;SDS011;18089;47.428;15.006;2022-12-29T11:03:45;20.40;;;17.60;;
31464;SDS011;18089;47.428;15.006;2022-12-29T11:06:25;20.20;;;16.70;;
31464;SDS011;18089;47.428;15.006;2022-12-29T11:09:01;18.80;;;16.45;;
31464;SDS011;18089;47.428;15.006;2022-12-29T11:11:35;23.17;;;17.65;;
31464;SDS011;18089;47.428;15.006;2022-12-29T11:14:11;18.08;;;15.90;;
31464;SDS011;18089;47.428;15.006;2022-12-29T11:16:46;16.42;;;14.73;;
31464;SDS011;18089;47.428;15.006;2022-12-29T11:19:28;17.70;;;14.82;;
31464;SDS011;18089;47.428;15.006;2022-12-29T11:22:12;17.20;;;13.02;;
31464;SDS011;18089;47.428;15.006;2022-12-29T11:24:45;15.10;;;12.07;;
31464;SDS011;18089;47.428;15.006;2022-12-29T11:27:19;12.88;;;11.57;;
31464;SDS011;18089;47.428;15.006;2022-12-29T11:29:53;18.02;;;11.60;;
31464;SDS011;18089;47.428;15.006;2022-12-29T11:32:27;19.20;;;15.13;;
31464;SDS011;18089;47.428;15.006;2022-12-29T11:35:00;20.45;;;15.02;;
31464;SDS011;18089;47.428;15.006;2022-12-29T11:37:37;19.95;;;14.18;;
31464;SDS011;18089;47.428;15.006;2022-12-29T11:40:15;15.63;;;13.00;;
31464;SDS011;18089;47.428;15.006;2022-12-29T11:42:50;16.83;;;12.38;;
31464;SDS011;18089;47.428;15.006;2022-12-29T11:45:23;15.13;;;12.57;;
31464;SDS011;18089;47.428;15.006;2022-12-29T11:47:58;15.85;;;11.68;;
31464;SDS011;18089;47.428;15.006;2022-12-29T11:50:31;15.57;;;11.15;;
31464;SDS011;18089;47.428;15.006;2022-12-29T11:53:05;14.35;;;11.10;;
31464;SDS011;18089;47.428;15.006;2022-12-29T11:55:41;15.27;;;11.07;;
31464;SDS011;18089;47.428;15.006;2022-12-29T11:58:28;14.10;;;11.82;;
31464;SDS011;18089;47.428;15.006;2022-12-29T12:01:02;19.35;;;14.18;;
31464;SDS011;18089;47.428;15.006;2022-12-29T12:03:40;13.68;;;12.15;;
31464;SDS011;18089;47.428;15.006;2022-12-29T12:06:16;15.02;;;12.95;;
31464;SDS011;18089;47.428;15.006;2022-12-29T12:08:51;14.85;;;13.25;;
31464;SDS011;18089;47.428;15.006;2022-12-29T12:11:26;16.92;;;12.85;;
31464;SDS011;18089;47.428;15.006;2022-12-29T12:14:06;12.07;;;10.52;;
31464;SDS011;18089;47.428;15.006;2022-12-29T12:16:46;14.02;;;10.10;;
31464;SDS011;18089;47.428;15.006;2022-12-29T12:19:26;12.85;;;9.43;;
31464;SDS011;18089;47.428;15.006;2022-12-29T12:22:07;12.50;;;10.00;;
31464;SDS011;18089;47.428;15.006;2022-12-29T12:24:44;12.57;;;11.27;;
31464;SDS011;18089;47.428;15.006;2022-12-29T12:27:20;14.93;;;12.15;;
31464;SDS011;18089;47.428;15.006;2022-12-29T12:29:56;13.10;;;11.02;;
31464;SDS011;18089;47.428;15.006;2022-12-29T12:32:34;15.45;;;10.52;;
31464;SDS011;18089;47.428;15.006;2022-12-29T12:35:14;13.15;;;11.25;;
31464;SDS011;18089;47.428;15.006;2022-12-29T12:37:52;15.57;;;12.10;;
31464;SDS011;18089;47.428;15.006;2022-12-29T12:40:46;14.52;;;11.57;;
31464;SDS011;18089;47.428;15.006;2022-12-29T12:43:33;12.98;;;10.35;;
31464;SDS011;18089;47.428;15.006;2022-12-29T12:46:38;12.68;;;10.48;;
31464;SDS011;18089;47.428;15.006;2022-12-29T12:49:34;15.40;;;11.02;;
31464;SDS011;18089;47.428;15.006;2022-12-29T12:52:27;13.50;;;11.13;;
31464;SDS011;18089;47.428;15.006;2022-12-29T12:55:06;15.32;;;12.07;;
31464;SDS011;18089;47.428;15.006;2022-12-29T12:57:51;16.20;;;13.00;;
31464;SDS011;18089;47.428;15.006;2022-12-29T13:00:24;16.38;;;12.10;;
31464;SDS011;18089;47.428;15.006;2022-12-29T13:03:01;14.07;;;12.55;;
31464;SDS011;18089;47.428;15.006;2022-12-29T13:05:46;13.90;;;11.90;;
31464;SDS011;18089;47.428;15.006;2022-12-29T13:08:41;11.85;;;10.75;;
31464;SDS011;18089;47.428;15.006;2022-12-29T13:11:23;12.13;;;10.23;;
31464;SDS011;18089;47.428;15.006;2022-12-29T13:14:07;13.27;;;10.18;;
31464;SDS011;18089;47.428;15.006;2022-12-29T13:16:48;11.60;;;10.38;;
31464;SDS011;18089;47.428;15.006;2022-12-29T13:19:24;11.05;;;8.70;;
31464;SDS011;18089;47.428;15.006;2022-12-29T13:22:02;16.38;;;8.90;;
31464;SDS011;18089;47.428;15.006;2022-12-29T13:24:46;30.00;;;18.95;;
31464;SDS011;18089;47.428;15.006;2022-12-29T13:27:23;9.23;;;8.05;;
31464;SDS011;18089;47.428;15.006;2022-12-29T13:30:00;9.70;;;8.35;;
31464;SDS011;18089;47.428;15.006;2022-12-29T13:32:36;10.68;;;9.57;;
31464;SDS011;18089;47.428;15.006;2022-12-29T13:35:21;11.52;;;10.15;;
31464;SDS011;18089;47.428;15.006;2022-12-29T13:37:59;10.95;;;9.95;;
31464;SDS011;18089;47.428;15.006;2022-12-29T13:40:38;11.82;;;10.63;;
31464;SDS011;18089;47.428;15.006;2022-12-29T13:43:11;13.57;;;11.23;;
31464;SDS011;18089;47.428;15.006;2022-12-29T13:45:44;13.57;;;12.15;;
31464;SDS011;18089;47.428;15.006;2022-12-29T13:48:18;14.57;;;12.05;;
31464;SDS011;18089;47.428;15.006;2022-12-29T13:50:54;15.23;;;11.93;;
31464;SDS011;18089;47.428;15.006;2022-12-29T13:53:30;13.23;;;12.02;;
31464;SDS011;18089;47.428;15.006;2022-12-29T13:56:09;12.40;;;11.10;;
31464;SDS011;18089;47.428;15.006;2022-12-29T13:58:44;13.43;;;10.88;;
31464;SDS011;18089;47.428;15.006;2022-12-29T14:01:22;12.40;;;11.05;;
31464;SDS011;18089;47.428;15.006;2022-12-29T14:04:09;13.43;;;10.75;;
31464;SDS011;18089;47.428;15.006;2022-12-29T14:06:42;11.35;;;10.45;;
31464;SDS011;18089;47.428;15.006;2022-12-29T14:09:28;12.10;;;11.10;;
31464;SDS011;18089;47.428;15.006;2022-12-29T14:12:20;10.98;;;10.07;;
31464;SDS011;18089;47.428;15.006;2022-12-29T14:15:06;13.40;;;11.13;;
31464;SDS011;18089;47.428;15.006;2022-12-29T14:18:00;12.98;;;11.82;;
31464;SDS011;18089;47.428;15.006;2022-12-29T14:20:35;14.60;;;11.65;;
31464;SDS011;18089;47.428;15.006;2022-12-29T14:23:24;11.38;;;10.45;;
31464;SDS011;18089;47.428;15.006;2022-12-29T14:25:59;10.88;;;10.07;;
31464;SDS011;18089;47.428;15.006;2022-12-29T14:28:43;11.23;;;10.35;;
31464;SDS011;18089;47.428;15.006;2022-12-29T14:31:35;11.13;;;10.25;;
31464;SDS011;18089;47.428;15.006;2022-12-29T14:34:27;12.38;;;10.07;;
31464;SDS011;18089;47.428;15.006;2022-12-29T14:37:00;12.45;;;11.43;;
31464;SDS011;18089;47.428;15.006;2022-12-29T14:39:34;14.10;;;12.65;;
31464;SDS011;18089;47.428;15.006;2022-12-29T14:42:10;13.50;;;12.30;;
31464;SDS011;18089;47.428;15.006;2022-12-29T14:44:47;13.30;;;12.02;;
31464;SDS011;18089;47.428;15.006;2022-12-29T14:47:22;13.80;;;12.50;;
31464;SDS011;18089;47.428;15.006;2022-12-29T14:50:03;13.52;;;12.43;;
31464;SDS011;18089;47.428;15.006;2022-12-29T14:52:41;15.97;;;14.20;;
31464;SDS011;18089;47.428;15.006;2022-12-29T14:55:32;15.50;;;14.00;;
31464;SDS011;18089;47.428;15.006;2022-12-29T14:58:12;15.03;;;13.50;;
31464;SDS011;18089;47.428;15.006;2022-12-29T15:00:48;15.87;;;14.37;;
31464;SDS011;18089;47.428;15.006;2022-12-29T15:03:22;14.87;;;13.67;;
31464;SDS011;18089;47.428;15.006;2022-12-29T15:05:55;15.87;;;14.43;;